createdAt,value
2023-03-17T00:00:24.659Z,82.06
2023-03-17T00:02:52.461Z,82.21
2023-03-17T00:05:24.684Z,82.02
2023-03-17T00:07:54.324Z,82.47
2023-03-17T00:10:23.845Z,82.63
2023-03-17T00:12:53.292Z,82.60
2023-03-17T00:15:22.230Z,82.52
2023-03-17T00:17:51.597Z,82.48
2023-03-17T00:20:25.325Z,82.92
2023-03-17T00:22:55.258Z,82.66
2023-03-17T00:25:27.258Z,82.56
2023-03-17T00:27:56.851Z,82.54
2023-03-17T00:30:29.142Z,82.87
2023-03-17T00:32:59.630Z,82.48
2023-03-17T00:35:30.693Z,82.55
2023-03-17T00:37:59.985Z,82.37
2023-03-17T00:40:31.720Z,82.48
2023-03-17T00:43:00.904Z,82.40
2023-03-17T00:45:29.013Z,82.75
2023-03-17T00:47:58.965Z,83.03
2023-03-17T00:50:30.006Z,83.28
2023-03-17T00:52:59.140Z,83.64
2023-03-17T00:55:27.553Z,83.75
2023-03-17T00:57:55.479Z,84.37
2023-03-17T01:00:31.138Z,84.38
2023-03-17T01:02:58.910Z,84.46
2023-03-17T01:05:29.622Z,84.62
2023-03-17T01:07:58.791Z,84.71
2023-03-17T01:10:29.868Z,84.58
2023-03-17T01:13:00.058Z,84.59
2023-03-17T01:15:31.556Z,85.51
2023-03-17T01:18:02.586Z,85.94
2023-03-17T01:20:34.576Z,86.15
2023-03-17T01:23:02.616Z,86.14
2023-03-17T01:25:30.874Z,86.23
2023-03-17T01:28:00.131Z,86.11
2023-03-17T01:30:31.008Z,86.06
2023-03-17T01:32:59.891Z,86.22
2023-03-17T01:35:30.213Z,86.01
2023-03-17T01:38:00.706Z,85.80
2023-03-17T01:40:32.247Z,85.59
2023-03-17T01:43:04.352Z,84.83
2023-03-17T01:45:51.628Z,84.97
2023-03-17T01:48:20.768Z,84.79
2023-03-17T01:50:49.770Z,84.65
2023-03-17T01:53:21.358Z,84.48
2023-03-17T01:55:51.179Z,84.22
2023-03-17T01:58:21.323Z,83.97
2023-03-17T02:00:50.166Z,84.09
2023-03-17T02:03:19.734Z,84.12
2023-03-17T02:05:49.320Z,84.08
2023-03-17T02:08:19.608Z,84.25
2023-03-17T02:10:50.476Z,84.45
2023-03-17T02:13:18.175Z,84.31
2023-03-17T02:15:54.386Z,84.44
2023-03-17T02:18:24.585Z,83.98
2023-03-17T02:21:31.423Z,84.27
2023-03-17T02:24:01.795Z,84.28
2023-03-17T02:26:35.591Z,84.19
2023-03-17T02:29:05.899Z,84.68
2023-03-17T02:31:34.804Z,84.69
2023-03-17T02:34:03.599Z,84.74
2023-03-17T02:36:36.395Z,84.34
2023-03-17T02:39:04.744Z,84.48
2023-03-17T02:41:32.480Z,84.46
2023-03-17T02:44:00.572Z,84.45
2023-03-17T02:46:29.079Z,84.00
2023-03-17T02:49:00.707Z,83.63
2023-03-17T02:51:28.449Z,83.55
2023-03-17T02:53:57.670Z,82.83
2023-03-17T02:56:26.105Z,83.36
2023-03-17T02:58:53.685Z,83.31
2023-03-17T03:01:22.252Z,83.35
2023-03-17T03:04:14.334Z,83.26
2023-03-17T03:06:44.539Z,83.07
2023-03-17T03:09:14.726Z,83.41
2023-03-17T03:11:43.682Z,83.30
2023-03-17T03:14:13.588Z,83.61
2023-03-17T03:16:43.346Z,83.64
2023-03-17T03:19:11.078Z,83.49
2023-03-17T03:21:38.694Z,84.09
2023-03-17T03:24:07.453Z,84.13
2023-03-17T03:26:36.969Z,84.11
2023-03-17T03:29:05.256Z,84.28
2023-03-17T03:31:32.890Z,84.65
2023-03-17T03:34:01.080Z,84.80
2023-03-17T03:36:29.686Z,84.88
2023-03-17T03:38:58.601Z,84.96
2023-03-17T03:41:26.231Z,85.55
2023-03-17T03:43:55.605Z,85.63
2023-03-17T03:46:23.314Z,85.65
2023-03-17T03:48:50.949Z,85.89
2023-03-17T03:51:18.549Z,85.81
2023-03-17T03:53:48.140Z,85.86
2023-03-17T03:56:15.989Z,86.36
2023-03-17T03:58:43.746Z,86.77
2023-03-17T04:01:13.186Z,86.67
2023-03-17T04:03:41.241Z,86.98
2023-03-17T04:06:35.588Z,86.73
2023-03-17T04:09:05.595Z,86.94
2023-03-17T04:11:35.048Z,86.96
2023-03-17T04:14:03.180Z,87.09
2023-03-17T04:16:32.161Z,87.45
2023-03-17T04:18:59.960Z,87.42
2023-03-17T04:21:54.612Z,87.73
2023-03-17T04:24:22.666Z,88.29
2023-03-17T04:26:50.276Z,88.19
2023-03-17T04:29:18.991Z,88.57
2023-03-17T04:31:49.559Z,88.44
2023-03-17T04:34:19.725Z,88.93
2023-03-17T04:36:49.701Z,88.97
2023-03-17T04:39:18.329Z,89.22
2023-03-17T04:41:46.251Z,88.79
2023-03-17T04:44:14.147Z,89.15
2023-03-17T04:46:44.616Z,89.22
2023-03-17T04:49:13.669Z,89.23
2023-03-17T04:51:42.593Z,89.77
2023-03-17T04:54:10.190Z,90.00
2023-03-17T04:56:37.909Z,90.60
2023-03-17T04:59:05.699Z,91.03
2023-03-17T05:01:35.041Z,91.37
2023-03-17T05:04:02.664Z,91.45
2023-03-17T05:06:31.770Z,91.49
2023-03-17T05:08:59.697Z,91.63
2023-03-17T05:11:52.996Z,91.78
2023-03-17T05:14:20.555Z,92.20
2023-03-17T05:16:50.823Z,92.27
2023-03-17T05:19:19.097Z,92.49
2023-03-17T05:21:48.959Z,92.55
2023-03-17T05:24:17.795Z,92.64
2023-03-17T05:26:45.967Z,92.99
2023-03-17T05:29:13.548Z,92.94
2023-03-17T05:31:42.302Z,92.95
2023-03-17T05:34:10.148Z,92.78
2023-03-17T05:36:37.825Z,92.71
2023-03-17T05:39:11.573Z,92.34
2023-03-17T05:41:40.897Z,92.01
2023-03-17T05:44:10.302Z,92.17
2023-03-17T05:46:37.907Z,91.96
2023-03-17T05:49:06.049Z,91.86
2023-03-17T05:51:35.736Z,91.82
2023-03-17T05:54:05.610Z,91.67
2023-03-17T05:56:36.596Z,91.47
2023-03-17T05:59:04.529Z,91.46
2023-03-17T06:01:32.319Z,91.66
2023-03-17T06:04:02.610Z,92.03
2023-03-17T06:06:30.191Z,92.52
2023-03-17T06:08:58.683Z,92.69
2023-03-17T06:11:26.598Z,92.68
2023-03-17T06:13:56.989Z,92.32
2023-03-17T06:16:24.633Z,92.46
2023-03-17T06:18:53.676Z,91.99
2023-03-17T06:21:21.708Z,92.16
2023-03-17T06:23:50.871Z,92.16
2023-03-17T06:26:18.524Z,92.80
2023-03-17T06:28:46.493Z,93.38
2023-03-17T06:31:16.560Z,94.13
2023-03-17T06:33:44.146Z,94.47
2023-03-17T06:36:12.316Z,94.54
2023-03-17T06:38:40.505Z,94.45
2023-03-17T06:41:33.597Z,94.18
2023-03-17T06:44:02.808Z,94.01
2023-03-17T06:46:32.588Z,94.23
2023-03-17T06:49:01.606Z,94.59
2023-03-17T06:51:31.041Z,94.76
2023-03-17T06:53:59.192Z,95.22
2023-03-17T06:56:30.570Z,95.63
2023-03-17T06:59:00.592Z,95.55
2023-03-17T07:01:28.605Z,96.39
2023-03-17T07:03:57.576Z,96.48
2023-03-17T07:06:25.164Z,96.92
2023-03-17T07:08:52.780Z,97.68
2023-03-17T07:11:20.602Z,98.52
2023-03-17T07:13:49.060Z,99.08
2023-03-17T07:16:20.926Z,99.61
2023-03-17T07:18:52.719Z,100.00
2023-03-17T07:21:21.825Z,100.00
2023-03-17T07:23:49.446Z,100.00
2023-03-17T07:26:17.082Z,100.00
2023-03-17T07:28:45.161Z,100.00
2023-03-17T07:31:14.433Z,100.00
2023-03-17T07:33:42.698Z,100.00
2023-03-17T07:36:12.586Z,100.00
2023-03-17T07:38:41.638Z,100.00
2023-03-17T07:41:11.635Z,100.00
2023-03-17T07:43:39.293Z,96.85
2023-03-17T07:46:08.459Z,96.80
2023-03-17T07:48:41.991Z,92.16
2023-03-17T07:51:15.842Z,91.78
2023-03-17T07:53:46.325Z,88.07
2023-03-17T07:56:14.582Z,84.51
2023-03-17T07:58:42.166Z,83.21
2023-03-17T08:01:10.185Z,82.97
2023-03-17T08:03:41.148Z,80.56
2023-03-17T08:06:12.670Z,79.63
2023-03-17T08:08:50.608Z,74.53
2023-03-17T08:11:18.829Z,68.01
2023-03-17T08:13:46.611Z,69.29
2023-03-17T08:16:14.726Z,70.02
2023-03-17T08:18:44.586Z,70.93
2023-03-17T08:21:14.099Z,71.81
2023-03-17T08:23:44.678Z,67.36
2023-03-17T08:26:15.855Z,67.99
2023-03-17T08:28:44.748Z,66.65
2023-03-17T08:31:38.088Z,67.01
2023-03-17T08:34:06.670Z,67.93
2023-03-17T08:36:37.741Z,66.73
2023-03-17T08:39:06.263Z,67.00
2023-03-17T08:41:36.770Z,67.14
2023-03-17T08:44:04.740Z,66.47
2023-03-17T08:46:33.666Z,59.20
2023-03-17T08:49:03.195Z,58.29
2023-03-17T08:51:34.237Z,60.81
2023-03-17T08:54:06.731Z,59.80
2023-03-17T08:57:02.680Z,58.25
2023-03-17T08:59:30.319Z,55.35
2023-03-17T09:01:58.188Z,56.17
2023-03-17T09:04:26.525Z,56.78
2023-03-17T09:07:03.357Z,56.20
2023-03-17T09:09:32.757Z,54.98
2023-03-17T09:12:26.133Z,54.29
2023-03-17T09:14:54.561Z,54.64
2023-03-17T09:17:23.246Z,56.43
2023-03-17T09:19:51.122Z,54.04
2023-03-17T09:22:19.618Z,52.88
2023-03-17T09:24:48.511Z,55.36
2023-03-17T09:27:17.642Z,54.69
2023-03-17T09:29:45.438Z,53.56
2023-03-17T09:32:13.821Z,52.60
2023-03-17T09:34:42.157Z,53.43
2023-03-17T09:37:10.637Z,55.02
2023-03-17T09:39:38.322Z,56.81
2023-03-17T09:42:17.035Z,57.17
2023-03-17T09:45:03.329Z,55.56
2023-03-17T09:47:52.767Z,54.44
2023-03-17T09:50:26.058Z,55.37
2023-03-17T09:52:56.742Z,54.27
2023-03-17T09:55:53.669Z,54.88
2023-03-17T09:58:26.981Z,55.85
2023-03-17T10:00:57.614Z,55.44
2023-03-17T10:03:27.601Z,55.48
2023-03-17T10:06:02.082Z,52.97
2023-03-17T10:08:34.711Z,53.97
2023-03-17T10:11:10.850Z,52.68
2023-03-17T10:13:52.121Z,53.09
2023-03-17T10:16:24.273Z,53.17
2023-03-17T10:18:56.723Z,52.32
2023-03-17T10:21:29.430Z,51.90
2023-03-17T10:23:59.202Z,53.23
2023-03-17T10:26:33.352Z,53.32
2023-03-17T10:29:04.138Z,53.65
2023-03-17T10:31:35.430Z,50.16
2023-03-17T10:34:14.713Z,51.74
2023-03-17T10:36:45.481Z,52.35
2023-03-17T10:39:15.746Z,53.23
2023-03-17T10:41:57.616Z,53.53
2023-03-17T10:44:39.210Z,53.43
2023-03-17T10:47:22.602Z,53.06
2023-03-17T10:49:51.931Z,53.13
2023-03-17T10:52:22.588Z,52.43
2023-03-17T10:54:52.624Z,51.85
2023-03-17T10:57:21.348Z,51.48
2023-03-17T10:59:54.428Z,52.56
2023-03-17T11:02:27.464Z,52.47
2023-03-17T11:04:59.619Z,50.81
2023-03-17T11:07:35.601Z,50.94
2023-03-17T11:10:06.468Z,47.96
2023-03-17T11:12:39.246Z,49.65
2023-03-17T11:15:11.968Z,49.81
2023-03-17T11:17:47.602Z,49.82
2023-03-17T11:20:30.264Z,50.10
2023-03-17T11:23:05.493Z,46.89
2023-03-17T11:25:40.261Z,48.25
2023-03-17T11:28:19.723Z,49.45
2023-03-17T11:30:58.099Z,48.21
2023-03-17T11:33:41.632Z,48.36
2023-03-17T11:36:20.572Z,48.02
2023-03-17T11:38:59.978Z,48.69
2023-03-17T11:41:52.248Z,48.55
2023-03-17T11:44:52.625Z,47.96
2023-03-17T11:47:34.631Z,48.65
2023-03-17T11:50:17.578Z,48.16
2023-03-17T11:52:59.765Z,48.66
2023-03-17T11:55:38.702Z,48.79
2023-03-17T11:58:10.483Z,48.94
2023-03-17T12:00:42.138Z,48.67
2023-03-17T12:03:15.762Z,48.30
2023-03-17T12:05:47.685Z,48.67
2023-03-17T12:08:18.870Z,48.86
2023-03-17T12:10:52.630Z,49.22
2023-03-17T12:13:27.914Z,48.91
2023-03-17T12:16:05.368Z,47.69
2023-03-17T12:18:37.376Z,48.80
2023-03-17T12:21:14.529Z,49.62
2023-03-17T12:23:48.187Z,48.88
2023-03-17T12:26:23.678Z,48.46
2023-03-17T12:28:57.401Z,47.81
2023-03-17T12:31:32.261Z,48.75
2023-03-17T12:34:06.354Z,48.24
2023-03-17T12:36:36.686Z,47.29
2023-03-17T12:39:10.122Z,47.13
2023-03-17T12:42:08.763Z,47.31
2023-03-17T12:44:58.039Z,48.94
2023-03-17T12:47:48.084Z,48.43
2023-03-17T12:50:44.736Z,46.32
2023-03-17T12:53:26.534Z,46.71
2023-03-17T12:55:56.482Z,46.38
2023-03-17T12:58:32.258Z,47.21
2023-03-17T13:01:08.738Z,47.52
2023-03-17T13:03:46.671Z,47.93
2023-03-17T13:06:20.723Z,45.64
2023-03-17T13:08:52.620Z,46.91
2023-03-17T13:11:29.654Z,47.54
2023-03-17T13:14:17.622Z,46.83
2023-03-17T13:16:47.627Z,47.11
2023-03-17T13:19:19.961Z,48.06
2023-03-17T13:22:13.892Z,48.41
2023-03-17T13:24:48.101Z,48.06
2023-03-17T13:27:36.617Z,46.75
2023-03-17T13:30:38.674Z,47.70
2023-03-17T13:33:23.622Z,46.58
2023-03-17T13:36:10.651Z,48.45
2023-03-17T13:39:18.176Z,46.77
2023-03-17T13:42:01.153Z,46.60
2023-03-17T13:44:43.667Z,48.01
2023-03-17T13:47:32.554Z,47.88
2023-03-17T13:50:07.456Z,47.11
2023-03-17T13:52:41.677Z,47.55
2023-03-17T13:55:35.721Z,48.45
2023-03-17T13:58:33.114Z,48.43
2023-03-17T14:01:07.203Z,48.16
2023-03-17T14:03:49.694Z,48.86
2023-03-17T14:06:19.348Z,48.83
2023-03-17T14:08:49.482Z,47.85
2023-03-17T14:11:25.813Z,49.08
2023-03-17T14:14:09.302Z,49.54
2023-03-17T14:16:44.029Z,48.29
2023-03-17T14:19:17.484Z,46.79
2023-03-17T14:21:45.310Z,47.27
2023-03-17T14:24:21.537Z,48.41
2023-03-17T14:26:50.233Z,48.67
2023-03-17T14:29:22.784Z,48.79
2023-03-17T14:32:04.183Z,48.43
2023-03-17T14:34:32.238Z,49.61
2023-03-17T14:37:02.801Z,49.85
2023-03-17T14:39:30.789Z,49.85
2023-03-17T14:42:00.382Z,49.81
2023-03-17T14:44:38.466Z,50.11
2023-03-17T14:47:14.638Z,49.57
2023-03-17T14:49:43.402Z,50.21
2023-03-17T14:52:20.319Z,49.15
2023-03-17T14:54:52.775Z,49.06
2023-03-17T14:57:24.558Z,47.86
2023-03-17T15:00:00.237Z,48.95
2023-03-17T15:02:35.084Z,50.18
2023-03-17T15:05:14.629Z,50.51
2023-03-17T15:08:40.865Z,50.92
2023-03-17T15:11:18.406Z,51.22
2023-03-17T15:13:46.527Z,50.40
2023-03-17T15:16:21.653Z,50.88
2023-03-17T15:18:53.977Z,52.12
2023-03-17T15:21:30.654Z,52.32
2023-03-17T15:24:05.613Z,52.85
2023-03-17T15:26:38.323Z,53.56
2023-03-17T15:29:07.641Z,53.37
2023-03-17T15:31:36.606Z,52.81
2023-03-17T15:34:05.322Z,53.44
2023-03-17T15:36:35.630Z,54.14
2023-03-17T15:39:03.754Z,54.45
2023-03-17T15:41:32.720Z,54.96
2023-03-17T15:44:06.306Z,54.69
2023-03-17T15:46:34.286Z,54.16
2023-03-17T15:49:03.265Z,54.97
2023-03-17T15:51:31.107Z,53.66
2023-03-17T15:53:59.753Z,52.78
2023-03-17T15:56:29.762Z,52.59
2023-03-17T15:58:57.373Z,53.15
2023-03-17T16:01:27.786Z,54.19
2023-03-17T16:03:55.837Z,53.97
2023-03-17T16:06:25.450Z,54.16
2023-03-17T16:08:53.153Z,53.93
2023-03-17T16:11:27.873Z,54.19
2023-03-17T16:13:56.758Z,54.77
2023-03-17T16:16:31.536Z,55.02
2023-03-17T16:19:00.120Z,54.95
2023-03-17T16:21:30.999Z,55.33
2023-03-17T16:23:59.411Z,55.63
2023-03-17T16:26:27.534Z,55.31
2023-03-17T16:28:55.641Z,55.21
2023-03-17T16:31:29.202Z,53.95
2023-03-17T16:33:57.095Z,54.54
2023-03-17T16:36:25.811Z,55.61
2023-03-17T16:38:54.815Z,56.13
2023-03-17T16:41:25.402Z,56.92
2023-03-17T16:43:58.736Z,57.67
2023-03-17T16:46:28.799Z,57.71
2023-03-17T16:48:56.485Z,57.56
2023-03-17T16:51:24.747Z,57.60
2023-03-17T16:53:55.649Z,57.14
2023-03-17T16:56:28.429Z,58.04
2023-03-17T16:58:56.194Z,57.79
2023-03-17T17:01:27.830Z,56.99
2023-03-17T17:03:56.514Z,57.27
2023-03-17T17:06:24.868Z,57.51
2023-03-17T17:08:52.948Z,57.81
2023-03-17T17:11:21.944Z,57.46
2023-03-17T17:13:51.526Z,57.98
2023-03-17T17:16:24.393Z,59.00
2023-03-17T17:18:52.254Z,59.67
2023-03-17T17:21:19.861Z,60.47
2023-03-17T17:23:47.654Z,61.08
2023-03-17T17:26:15.340Z,61.26
2023-03-17T17:28:44.308Z,61.09
2023-03-17T17:31:12.283Z,61.80
2023-03-17T17:33:40.205Z,61.35
2023-03-17T17:36:14.395Z,61.46
2023-03-17T17:38:42.244Z,61.47
2023-03-17T17:41:11.664Z,62.59
2023-03-17T17:43:39.410Z,63.06
2023-03-17T17:46:13.231Z,62.98
2023-03-17T17:48:41.036Z,63.48
2023-03-17T17:51:10.665Z,63.61
2023-03-17T17:53:38.253Z,63.55
2023-03-17T17:56:06.344Z,63.60
2023-03-17T17:58:34.275Z,63.52
2023-03-17T18:01:04.435Z,63.63
2023-03-17T18:03:33.914Z,63.63
2023-03-17T18:06:01.964Z,64.10
2023-03-17T18:08:29.774Z,65.06
2023-03-17T18:10:57.414Z,65.03
2023-03-17T18:13:25.035Z,63.93
2023-03-17T18:15:52.879Z,64.00
2023-03-17T18:18:20.692Z,64.23
2023-03-17T18:20:50.809Z,64.48
2023-03-17T18:23:20.095Z,64.38
2023-03-17T18:25:47.787Z,64.65
2023-03-17T18:28:16.657Z,64.67
2023-03-17T18:30:44.643Z,65.29
2023-03-17T18:33:17.719Z,65.95
2023-03-17T18:35:48.764Z,65.52
2023-03-17T18:38:17.931Z,65.87
2023-03-17T18:40:46.727Z,65.50
2023-03-17T18:43:14.371Z,65.77
2023-03-17T18:45:42.234Z,65.50
2023-03-17T18:48:09.869Z,65.51
2023-03-17T18:50:37.420Z,65.50
2023-03-17T18:53:05.930Z,64.82
2023-03-17T18:55:34.959Z,64.56
2023-03-17T18:58:02.540Z,64.42
2023-03-17T19:00:30.740Z,64.38
2023-03-17T19:02:58.860Z,64.10
2023-03-17T19:05:26.593Z,63.88
2023-03-17T19:07:54.376Z,63.85
2023-03-17T19:10:22.069Z,62.71
2023-03-17T19:12:52.080Z,62.72
2023-03-17T19:15:21.501Z,62.79
2023-03-17T19:17:50.236Z,62.83
2023-03-17T19:20:19.677Z,61.89
2023-03-17T19:22:47.357Z,61.33
2023-03-17T19:25:16.457Z,61.97
2023-03-17T19:27:44.327Z,62.54
2023-03-17T19:30:14.661Z,62.23
2023-03-17T19:32:42.410Z,61.56
2023-03-17T19:35:12.954Z,61.52
2023-03-17T19:37:42.747Z,61.72
2023-03-17T19:40:13.201Z,61.73
2023-03-17T19:42:40.911Z,61.56
2023-03-17T19:45:09.723Z,61.51
2023-03-17T19:47:38.668Z,61.66
2023-03-17T19:50:08.212Z,61.19
2023-03-17T19:52:36.166Z,61.00
2023-03-17T19:55:05.444Z,60.86
2023-03-17T19:57:34.741Z,61.23
2023-03-17T20:00:02.562Z,61.31
2023-03-17T20:02:38.899Z,61.45
2023-03-17T20:05:07.734Z,61.20
2023-03-17T20:07:36.036Z,61.78
2023-03-17T20:10:04.529Z,62.00
2023-03-17T20:12:32.633Z,62.17
2023-03-17T20:15:01.367Z,62.32
2023-03-17T20:17:29.070Z,62.17
2023-03-17T20:20:00.656Z,61.82
2023-03-17T20:22:28.291Z,61.75
2023-03-17T20:24:56.963Z,62.54
2023-03-17T20:27:25.208Z,63.07
2023-03-17T20:29:52.870Z,63.08
2023-03-17T20:32:21.058Z,63.03
2023-03-17T20:34:49.008Z,63.34
2023-03-17T20:37:18.672Z,63.97
2023-03-17T20:39:46.285Z,64.24
2023-03-17T20:42:15.099Z,64.09
2023-03-17T20:44:43.072Z,64.39
2023-03-17T20:47:11.271Z,64.58
2023-03-17T20:49:39.178Z,64.43
2023-03-17T20:52:08.405Z,65.03
2023-03-17T20:54:38.794Z,64.86
2023-03-17T20:57:07.674Z,64.97
2023-03-17T20:59:37.194Z,64.23
2023-03-17T21:02:05.378Z,64.37
2023-03-17T21:04:33.151Z,64.06
2023-03-17T21:07:00.754Z,64.37
2023-03-17T21:09:28.494Z,64.59
2023-03-17T21:11:57.644Z,64.85
2023-03-17T21:14:27.618Z,65.26
2023-03-17T21:16:55.188Z,65.11
2023-03-17T21:19:23.441Z,65.28
2023-03-17T21:21:51.288Z,65.07
2023-03-17T21:24:28.636Z,64.47
2023-03-17T21:26:59.522Z,64.59
2023-03-17T21:29:27.560Z,65.05
2023-03-17T21:31:56.711Z,65.21
2023-03-17T21:34:24.901Z,64.64
2023-03-17T21:36:52.754Z,64.76
2023-03-17T21:39:21.298Z,65.07
2023-03-17T21:41:50.836Z,65.37
2023-03-17T21:44:20.152Z,65.46
2023-03-17T21:46:49.188Z,65.58
2023-03-17T21:49:18.643Z,65.53
2023-03-17T21:51:47.620Z,65.51
2023-03-17T21:54:15.599Z,66.02
2023-03-17T21:56:43.554Z,66.65
2023-03-17T21:59:12.315Z,67.38
2023-03-17T22:01:41.723Z,68.61
2023-03-17T22:04:09.830Z,68.54
2023-03-17T22:06:37.504Z,68.95
2023-03-17T22:09:06.890Z,69.02
2023-03-17T22:11:34.914Z,69.54
2023-03-17T22:14:02.823Z,69.78
2023-03-17T22:16:31.165Z,69.83
2023-03-17T22:19:00.575Z,69.74
2023-03-17T22:21:28.682Z,70.16
2023-03-17T22:23:56.393Z,70.47
2023-03-17T22:26:24.056Z,70.69
2023-03-17T22:28:51.781Z,71.42
2023-03-17T22:31:22.266Z,71.97
2023-03-17T22:33:51.181Z,72.30
2023-03-17T22:36:20.575Z,72.21
2023-03-17T22:38:48.750Z,72.53
2023-03-17T22:41:18.693Z,73.03
2023-03-17T22:43:47.831Z,73.66
2023-03-17T22:46:16.642Z,74.08
2023-03-17T22:48:46.008Z,74.41
2023-03-17T22:51:16.287Z,75.33
2023-03-17T22:53:46.297Z,76.36
2023-03-17T22:56:15.585Z,76.94
2023-03-17T22:58:43.878Z,78.32
2023-03-17T23:01:13.319Z,79.16
2023-03-17T23:03:41.832Z,79.48
2023-03-17T23:06:13.009Z,80.71
2023-03-17T23:08:42.660Z,81.50
2023-03-17T23:11:14.433Z,82.16
2023-03-17T23:13:42.614Z,82.90
2023-03-17T23:16:10.804Z,83.33
2023-03-17T23:18:38.496Z,84.05
2023-03-17T23:21:07.348Z,84.79
2023-03-17T23:23:35.751Z,85.34
2023-03-17T23:26:03.557Z,85.89
2023-03-17T23:28:32.952Z,86.43
2023-03-17T23:31:02.565Z,86.68
2023-03-17T23:33:31.693Z,87.08
2023-03-17T23:35:59.317Z,87.32
2023-03-17T23:38:27.612Z,87.86
2023-03-17T23:40:57.424Z,88.00
2023-03-17T23:43:25.932Z,88.37
2023-03-17T23:45:54.983Z,88.42
2023-03-17T23:48:23.100Z,89.39
2023-03-17T23:50:52.521Z,89.46
2023-03-17T23:53:20.282Z,89.51
2023-03-17T23:55:48.810Z,89.57
2023-03-17T23:58:16.654Z,89.97
